Time;durP1;ratioP1;P1;durP2;ratioP2;P2;SDS_P1;SDS_P2;PMS_P1;PMS_P2;Temp;Humidity;BMP_temperature;BMP_pressure;BME280_temperature;BME280_humidity;BME280_pressure;Samples;Min_cycle;Max_cycle;Signal;HPM_P1;HPM_P2
2022/05/12 00:00:25;;;;;;;7.50;4.40;;;15.40;99.90;;;;;;5073644;28;20052;-66
2022/05/12 00:02:51;;;;;;;9.50;3.95;;;15.50;99.90;;;;;;5065175;28;20041;-66
2022/05/12 00:05:20;;;;;;;7.65;4.30;;;15.50;99.90;;;;;;5074094;28;20075;-66
2022/05/12 00:07:47;;;;;;;10.45;4.45;;;15.60;99.90;;;;;;5074153;28;20044;-66
2022/05/12 00:10:19;;;;;;;5.78;3.50;;;15.70;99.90;;;;;;5066542;28;20040;-66
2022/05/12 00:12:46;;;;;;;6.22;3.90;;;15.80;99.90;;;;;;5074214;28;20106;-66
2022/05/12 00:15:20;;;;;;;7.97;4.18;;;15.80;99.90;;;;;;5073827;28;20048;-66
2022/05/12 00:17:46;;;;;;;6.28;4.15;;;15.80;99.90;;;;;;5066774;28;20460;-66
2022/05/12 00:20:17;;;;;;;12.65;5.07;;;15.80;99.90;;;;;;5084148;28;20067;-66
2022/05/12 00:22:44;;;;;;;9.13;4.70;;;15.70;99.90;;;;;;5093721;28;20048;-66
2022/05/12 00:25:18;;;;;;;7.75;4.18;;;15.70;99.90;;;;;;5092591;28;20071;-66
2022/05/12 00:27:45;;;;;;;6.68;4.28;;;15.70;99.90;;;;;;5066453;28;20404;-66
2022/05/12 00:30:13;;;;;;;5.13;3.70;;;15.70;99.90;;;;;;5072269;28;20049;-66
2022/05/12 00:32:42;;;;;;;6.03;4.43;;;15.70;99.90;;;;;;5073434;28;20047;-66
2022/05/12 00:35:11;;;;;;;6.68;4.05;;;15.70;99.90;;;;;;5073220;28;20409;-66
2022/05/12 00:37:38;;;;;;;6.97;4.00;;;15.70;99.90;;;;;;5070893;28;20071;-66
2022/05/12 00:40:07;;;;;;;9.73;4.60;;;15.70;99.90;;;;;;5072844;28;20071;-66
2022/05/12 00:42:34;;;;;;;6.38;3.53;;;15.70;99.90;;;;;;5055867;28;20056;-66
2022/05/12 00:45:01;;;;;;;6.38;3.55;;;15.60;99.90;;;;;;5067755;28;20055;-66
2022/05/12 00:47:27;;;;;;;8.35;3.80;;;15.40;99.90;;;;;;5073201;28;20048;-66
2022/05/12 00:49:54;;;;;;;7.93;4.10;;;15.30;99.90;;;;;;5072840;28;20045;-67
2022/05/12 00:52:26;;;;;;;10.55;4.80;;;15.10;99.90;;;;;;5073116;28;20098;-66
2022/05/12 00:55:06;;;;;;;8.48;4.65;;;15.10;99.90;;;;;;5070874;28;20036;-66
2022/05/12 00:57:37;;;;;;;7.82;4.80;;;15.20;99.90;;;;;;5073179;28;20400;-65
2022/05/12 01:00:08;;;;;;;7.15;4.63;;;15.20;99.90;;;;;;5072779;28;20052;-66
2022/05/12 01:02:36;;;;;;;10.65;4.80;;;15.40;99.90;;;;;;5073269;28;20044;-66
2022/05/12 01:05:04;;;;;;;7.90;4.35;;;15.40;99.90;;;;;;5069641;28;20048;-65
2022/05/12 01:07:31;;;;;;;6.47;4.53;;;15.50;99.90;;;;;;5071457;28;20044;-66
2022/05/12 01:10:00;;;;;;;6.88;4.50;;;15.50;99.90;;;;;;5072451;28;20048;-66
2022/05/12 01:12:28;;;;;;;8.30;4.30;;;15.50;99.90;;;;;;5072845;28;20040;-66
2022/05/12 01:14:55;;;;;;;10.52;4.88;;;15.50;99.90;;;;;;5065296;28;20032;-66
2022/05/12 01:17:23;;;;;;;11.10;4.40;;;15.50;99.90;;;;;;5072497;28;20417;-66
2022/05/12 01:19:51;;;;;;;6.07;4.38;;;15.50;99.90;;;;;;5072449;28;20048;-66
2022/05/12 01:23:05;;;;;;;5.93;4.13;;;15.50;99.90;;;;;;5067750;28;20119;-66
2022/05/12 01:25:32;;;;;;;7.32;4.10;;;15.50;99.90;;;;;;5068948;28;20044;-66
2022/05/12 01:27:59;;;;;;;8.93;4.55;;;15.40;99.90;;;;;;5072413;28;20106;-66
2022/05/12 01:30:26;;;;;;;5.70;4.20;;;15.40;99.90;;;;;;5071888;28;20048;-66
2022/05/12 01:32:52;;;;;;;9.23;4.38;;;15.40;99.90;;;;;;5065038;28;20041;-66
2022/05/12 01:35:22;;;;;;;8.80;4.22;;;15.40;99.90;;;;;;5072362;28;20106;-66
2022/05/12 01:37:48;;;;;;;7.57;4.60;;;15.40;99.90;;;;;;5071890;28;20044;-66
2022/05/12 01:40:18;;;;;;;9.25;4.95;;;15.30;99.90;;;;;;5050998;28;20048;-66
2022/05/12 01:42:45;;;;;;;6.05;4.50;;;15.20;99.90;;;;;;5070356;28;20044;-66
2022/05/12 01:45:13;;;;;;;8.68;4.68;;;15.10;99.90;;;;;;5072018;28;20044;-65
2022/05/12 01:47:40;;;;;;;8.82;4.22;;;15.00;99.90;;;;;;5054391;28;20119;-66
2022/05/12 01:50:09;;;;;;;9.20;4.78;;;15.00;99.90;;;;;;5070085;28;20044;-66
2022/05/12 01:52:37;;;;;;;8.68;4.72;;;15.00;99.90;;;;;;5071900;28;20033;-66
2022/05/12 01:55:05;;;;;;;11.05;5.20;;;15.00;99.90;;;;;;5071860;28;20446;-66
2022/05/12 01:57:32;;;;;;;8.77;5.05;;;15.00;99.90;;;;;;5065113;28;20037;-66
2022/05/12 01:59:59;;;;;;;12.95;4.70;;;15.00;99.90;;;;;;5063319;28;20408;-66
2022/05/12 02:02:28;;;;;;;7.75;4.20;;;14.90;99.90;;;;;;5071916;28;20040;-66
2022/05/12 02:04:54;;;;;;;9.68;4.90;;;14.90;99.90;;;;;;5071869;28;20094;-66
2022/05/12 02:07:21;;;;;;;5.85;4.82;;;14.80;99.90;;;;;;5068917;28;20056;-66
2022/05/12 02:09:48;;;;;;;9.95;5.45;;;14.80;99.90;;;;;;5071239;28;20070;-65
2022/05/12 02:12:15;;;;;;;8.60;4.53;;;14.70;99.90;;;;;;5071431;28;20037;-66
2022/05/12 02:14:42;;;;;;;5.53;4.45;;;14.70;99.90;;;;;;5070276;28;20496;-66
2022/05/12 02:17:08;;;;;;;6.95;5.03;;;14.60;99.90;;;;;;5071455;28;20090;-66
2022/05/12 02:19:35;;;;;;;9.02;4.80;;;14.50;99.90;;;;;;5070565;28;20467;-66
2022/05/12 02:22:03;;;;;;;7.97;4.53;;;14.50;99.90;;;;;;5070948;28;20052;-66
2022/05/12 02:24:30;;;;;;;11.18;5.45;;;14.40;99.90;;;;;;5068172;28;20044;-66
2022/05/12 02:26:56;;;;;;;12.55;5.65;;;14.40;99.90;;;;;;5071448;28;20562;-66
2022/05/12 02:29:24;;;;;;;10.43;5.13;;;14.40;99.90;;;;;;5071485;28;20509;-66
2022/05/12 02:31:51;;;;;;;10.75;5.20;;;14.40;99.90;;;;;;5070332;28;20052;-66
2022/05/12 02:34:18;;;;;;;10.10;5.57;;;14.30;99.90;;;;;;5071539;28;20036;-66
2022/05/12 02:36:59;;;;;;;11.07;5.60;;;14.40;99.90;;;;;;5071729;28;20520;-66
2022/05/12 02:39:28;;;;;;;11.00;5.22;;;14.30;99.90;;;;;;5071785;28;20115;-66
2022/05/12 02:41:55;;;;;;;9.38;5.72;;;14.30;99.90;;;;;;5067613;28;20036;-66
2022/05/12 02:44:22;;;;;;;7.85;4.40;;;14.40;99.90;;;;;;5071249;28;20045;-66
2022/05/12 02:46:49;;;;;;;7.55;5.10;;;14.30;99.90;;;;;;5071612;28;20448;-66
2022/05/12 02:49:15;;;;;;;9.88;5.20;;;14.30;99.90;;;;;;5068797;28;20044;-66
2022/05/12 02:51:43;;;;;;;7.45;5.10;;;14.20;99.90;;;;;;5068777;28;20115;-66
2022/05/12 02:54:14;;;;;;;12.75;5.95;;;14.10;99.90;;;;;;5071347;28;20555;-66
2022/05/12 02:56:41;;;;;;;9.98;5.25;;;14.10;99.90;;;;;;5071116;28;20048;-66
2022/05/12 02:59:09;;;;;;;6.93;4.95;;;14.20;99.90;;;;;;5066952;28;20508;-66
2022/05/12 03:01:35;;;;;;;;;;;14.20;99.90;;;;;;5071291;28;20045;-66
2022/05/12 03:04:03;;;;;;;8.02;5.35;;;14.20;99.90;;;;;;5071101;28;20399;-66
2022/05/12 03:06:30;;;;;;;7.38;4.53;;;14.20;99.90;;;;;;5071365;28;20408;-66
2022/05/12 03:08:58;;;;;;;8.57;5.35;;;14.20;99.90;;;;;;5065472;28;20440;-66
2022/05/12 03:11:25;;;;;;;9.43;5.63;;;14.10;99.90;;;;;;5070817;28;20040;-66
2022/05/12 03:13:52;;;;;;;8.48;5.05;;;14.10;99.90;;;;;;5071294;28;20629;-66
2022/05/12 03:16:19;;;;;;;6.55;5.00;;;14.00;99.90;;;;;;5063755;28;20047;-66
2022/05/12 03:18:47;;;;;;;11.43;5.30;;;14.00;99.90;;;;;;5070689;28;20135;-65
2022/05/12 03:21:14;;;;;;;;;;;14.00;99.90;;;;;;5071232;28;20044;-66
2022/05/12 03:23:41;;;;;;;10.35;5.50;;;14.10;99.90;;;;;;5071091;28;20023;-66
2022/05/12 03:26:09;;;;;;;9.88;5.80;;;14.10;99.90;;;;;;5069851;28;20037;-66
2022/05/12 03:28:37;;;;;;;6.43;5.13;;;14.10;99.90;;;;;;5070883;28;20428;-66
2022/05/12 03:31:10;;;;;;;7.78;5.28;;;14.40;99.90;;;;;;5072579;28;20056;-66
2022/05/12 03:33:37;;;;;;;11.90;5.65;;;14.10;99.90;;;;;;5075067;28;20411;-66
2022/05/12 03:36:05;;;;;;;;;;;14.20;99.90;;;;;;5068021;28;20058;-65
2022/05/12 03:38:31;;;;;;;7.68;5.20;;;14.10;99.90;;;;;;5074643;28;19944;-66
2022/05/12 03:40:58;;;;;;;6.78;5.38;;;14.10;99.90;;;;;;5074213;28;20086;-66
2022/05/12 03:46:12;;;;;;;9.82;6.00;;;14.10;99.90;;;;;;5068114;28;20090;-66
2022/05/12 03:48:40;;;;;;;9.40;5.28;;;14.10;99.90;;;;;;5074480;28;20036;-65
2022/05/12 03:51:07;;;;;;;10.20;6.07;;;14.20;99.90;;;;;;5074208;28;20102;-65
2022/05/12 03:53:35;;;;;;;8.25;5.90;;;14.20;99.90;;;;;;5068490;28;20044;-65
2022/05/12 03:56:04;;;;;;;8.00;5.38;;;14.20;99.90;;;;;;5074277;28;20520;-66
2022/05/12 03:58:32;;;;;;;8.20;5.40;;;14.20;99.90;;;;;;5074448;28;20044;-65
2022/05/12 04:00:59;;;;;;;;;;;14.30;99.90;;;;;;5074029;28;20044;-65
2022/05/12 04:03:26;;;;;;;7.35;5.38;;;14.30;99.90;;;;;;5070488;28;20350;-66
2022/05/12 04:05:55;;;;;;;8.23;5.28;;;14.30;99.90;;;;;;5074221;28;20043;-66
2022/05/12 04:08:22;;;;;;;8.52;5.40;;;14.40;99.90;;;;;;5074327;28;20416;-66
2022/05/12 04:10:51;;;;;;;13.85;5.35;;;14.40;99.90;;;;;;5066646;28;20048;-66
2022/05/12 04:13:18;;;;;;;7.80;5.60;;;14.40;99.90;;;;;;5073878;28;20045;-66
2022/05/12 04:15:45;;;;;;;11.02;5.70;;;14.40;99.90;;;;;;5073894;28;20086;-66
2022/05/12 04:18:11;;;;;;;10.52;5.32;;;14.40;99.90;;;;;;5093700;22;20052;-66
2022/05/12 04:20:39;;;;;;;8.70;5.50;;;14.40;99.90;;;;;;5090932;28;20039;-66
2022/05/12 04:23:06;;;;;;;14.23;8.10;;;14.30;99.90;;;;;;5093871;28;20040;-66
2022/05/12 04:25:32;;;;;;;11.60;6.25;;;14.30;99.90;;;;;;5097536;28;20043;-66
2022/05/12 04:27:59;;;;;;;8.98;5.63;;;14.30;99.90;;;;;;5091011;28;20051;-66
2022/05/12 04:30:27;;;;;;;9.13;5.70;;;14.30;99.90;;;;;;5082916;28;20089;-66
2022/05/12 04:32:54;;;;;;;10.60;5.55;;;14.30;99.90;;;;;;5083006;28;20039;-66
2022/05/12 04:35:23;;;;;;;12.45;6.10;;;14.40;99.90;;;;;;5081463;28;20036;-66
2022/05/12 04:37:53;;;;;;;12.25;5.78;;;14.40;99.90;;;;;;5076428;28;20036;-66
2022/05/12 04:40:29;;;;;;;12.15;6.60;;;14.40;99.90;;;;;;5061980;28;20045;-66
2022/05/12 04:42:58;;;;;;;8.00;5.80;;;14.40;99.90;;;;;;5060934;28;20041;-66
2022/05/12 04:45:28;;;;;;;8.70;5.03;;;14.50;99.90;;;;;;5063410;28;20128;-66
2022/05/12 04:47:55;;;;;;;7.68;5.18;;;14.50;99.90;;;;;;5064618;28;20037;-66
2022/05/12 04:50:25;;;;;;;6.95;5.15;;;14.40;99.90;;;;;;5073924;28;20097;-66
2022/05/12 04:52:52;;;;;;;8.48;5.05;;;14.40;99.90;;;;;;5093443;28;20035;-66
2022/05/12 04:55:20;;;;;;;7.70;5.30;;;14.30;99.90;;;;;;5083195;28;20037;-67
2022/05/12 04:57:49;;;;;;;12.00;6.05;;;14.20;99.90;;;;;;5073206;28;20037;-66
2022/05/12 05:00:21;;;;;;;9.55;5.22;;;14.30;99.90;;;;;;5072590;28;20040;-66
2022/05/12 05:02:47;;;;;;;9.35;5.63;;;14.40;99.90;;;;;;5073114;28;20049;-66
2022/05/12 05:05:14;;;;;;;11.48;5.63;;;14.50;99.90;;;;;;5072527;28;20404;-66
2022/05/12 05:07:41;;;;;;;11.80;6.32;;;14.60;99.90;;;;;;5072926;28;20041;-66
2022/05/12 05:10:11;;;;;;;9.50;5.45;;;14.70;99.90;;;;;;5072331;28;20055;-66
2022/05/12 05:12:43;;;;;;;7.97;5.38;;;14.80;99.90;;;;;;5072925;28;20041;-66
2022/05/12 05:15:12;;;;;;;8.88;5.60;;;14.80;99.90;;;;;;5072659;28;20044;-66
2022/05/12 05:17:40;;;;;;;12.25;5.97;;;14.90;99.90;;;;;;5072658;28;20094;-66
2022/05/12 05:20:11;;;;;;;9.38;5.32;;;14.90;99.90;;;;;;5072721;28;20400;-65
2022/05/12 05:22:38;;;;;;;11.43;6.20;;;14.90;99.90;;;;;;5072381;28;20041;-65
2022/05/12 05:25:06;;;;;;;14.45;6.32;;;14.90;99.90;;;;;;5072594;28;20041;-66
2022/05/12 05:27:33;;;;;;;9.25;5.53;;;14.90;99.90;;;;;;5072684;28;20060;-65
2022/05/12 05:30:00;;;;;;;16.58;6.35;;;14.90;99.90;;;;;;5072247;28;20040;-65
2022/05/12 05:32:27;;;;;;;;;;;15.00;99.90;;;;;;5072216;28;20055;-65
2022/05/12 05:34:54;;;;;;;11.43;5.60;;;15.10;99.90;;;;;;5072481;28;20007;-65
2022/05/12 05:37:22;;;;;;;10.10;5.97;;;15.10;99.90;;;;;;5070857;28;20048;-65
2022/05/12 05:39:49;;;;;;;10.15;6.15;;;15.20;99.90;;;;;;5067438;28;20090;-66
2022/05/12 05:42:18;;;;;;;13.23;5.70;;;15.40;99.90;;;;;;5071545;28;20044;-65
2022/05/12 05:44:45;;;;;;;16.58;7.30;;;15.50;99.90;;;;;;5071431;28;20044;-66
2022/05/12 05:47:11;;;;;;;13.55;6.28;;;15.50;99.90;;;;;;5080419;28;20090;-65
2022/05/12 05:49:39;;;;;;;9.93;6.65;;;15.60;99.90;;;;;;5071888;28;20052;-65
2022/05/12 05:54:51;;;;;;;10.50;5.95;;;15.70;99.90;;;;;;5068036;28;20044;-65
2022/05/12 05:57:24;;;;;;;10.48;6.00;;;15.80;99.90;;;;;;5057243;28;20050;-66
2022/05/12 05:59:52;;;;;;;11.07;6.15;;;15.80;99.90;;;;;;5071662;28;20109;-65
2022/05/12 06:02:19;;;;;;;9.35;5.88;;;15.90;99.90;;;;;;5074298;28;20048;-65
2022/05/12 06:04:46;;;;;;;13.23;5.43;;;16.00;99.90;;;;;;5067396;28;20044;-66
2022/05/12 06:07:13;;;;;;;8.00;5.75;;;16.10;99.90;;;;;;5071546;28;20404;-66
2022/05/12 06:09:41;;;;;;;8.27;6.15;;;16.20;99.90;;;;;;5071459;28;20508;-65
2022/05/12 06:12:09;;;;;;;9.40;6.38;;;16.20;99.90;;;;;;5073691;28;20041;-66
2022/05/12 06:14:37;;;;;;;17.70;6.63;;;16.30;99.90;;;;;;5066739;28;20037;-66
2022/05/12 06:17:03;;;;;;;11.95;6.72;;;16.40;99.90;;;;;;5071301;28;20105;-65
2022/05/12 06:19:30;;;;;;;11.70;6.95;;;16.50;99.90;;;;;;5071352;28;20044;-66
2022/05/12 06:21:57;;;;;;;16.52;6.90;;;16.60;99.90;;;;;;5070577;28;20090;-65
2022/05/12 06:24:24;;;;;;;9.75;6.25;;;16.70;99.90;;;;;;5071375;28;20056;-65
2022/05/12 06:26:51;;;;;;;;;;;16.80;99.90;;;;;;5053708;28;20451;-66
2022/05/12 06:29:19;;;;;;;11.18;6.15;;;16.90;99.90;;;;;;5071529;28;19927;-66
2022/05/12 06:31:47;;;;;;;9.38;6.53;;;17.20;99.90;;;;;;5070433;28;20091;-66
2022/05/12 06:34:15;;;;;;;12.80;6.43;;;17.50;99.90;;;;;;5071132;28;20094;-65
2022/05/12 06:36:43;;;;;;;8.45;5.90;;;17.60;99.90;;;;;;5053545;28;20553;-66
2022/05/12 06:39:10;;;;;;;11.75;6.35;;;17.80;99.90;;;;;;5071389;28;20072;-66
2022/05/12 06:41:37;;;;;;;9.85;6.88;;;17.90;99.90;;;;;;5070418;28;20036;-66
2022/05/12 06:44:05;;;;;;;10.88;6.95;;;18.20;99.90;;;;;;5071457;28;20078;-66
2022/05/12 06:46:32;;;;;;;9.38;6.30;;;18.50;99.90;;;;;;5071226;28;20102;-66
2022/05/12 06:49:02;;;;;;;11.50;6.47;;;18.60;99.90;;;;;;5070236;28;20443;-65
2022/05/12 06:51:29;;;;;;;10.23;6.35;;;18.80;99.90;;;;;;5070748;28;20519;-66
2022/05/12 06:53:55;;;;;;;11.35;6.80;;;19.10;99.90;;;;;;5071185;28;20511;-66
2022/05/12 06:56:22;;;;;;;10.50;6.22;;;19.30;99.90;;;;;;5075205;28;20044;-66
2022/05/12 06:58:49;;;;;;;9.85;6.10;;;19.50;99.90;;;;;;5065543;28;20509;-66
2022/05/12 07:01:16;;;;;;;12.82;6.95;;;19.70;99.90;;;;;;5061546;28;20040;-66
2022/05/12 07:03:43;;;;;;;10.80;6.80;;;19.80;99.90;;;;;;5068293;28;20133;-66
2022/05/12 07:06:10;;;;;;;;;;;19.90;99.90;;;;;;5067385;28;20048;-66
2022/05/12 07:08:40;;;;;;;12.38;7.03;;;19.80;99.90;;;;;;5074714;28;19966;-65
2022/05/12 07:11:08;;;;;;;14.43;7.18;;;20.00;99.90;;;;;;5075021;28;20045;-65
2022/05/12 07:13:35;;;;;;;8.43;5.85;;;20.20;99.90;;;;;;5069760;28;20045;-65
2022/05/12 07:16:04;;;;;;;11.18;6.13;;;20.40;99.90;;;;;;5075003;28;20041;-66
2022/05/12 07:18:31;;;;;;;12.13;6.80;;;20.50;99.90;;;;;;5075097;28;20560;-65
2022/05/12 07:26:50;;;;;;;12.93;6.97;;;20.30;99.90;;;;;;5074666;28;20090;-65
2022/05/12 07:29:22;;;;;;;13.10;7.22;;;20.40;99.90;;;;;;5073961;28;20044;-65
2022/05/12 07:31:49;;;;;;;8.15;6.20;;;20.60;99.90;;;;;;5071111;28;20559;-65
2022/05/12 07:34:17;;;;;;;9.52;6.78;;;20.90;99.90;;;;;;5074734;28;20060;-65
2022/05/12 07:36:47;;;;;;;12.98;6.10;;;21.20;99.90;;;;;;5074266;28;20090;-64
2022/05/12 07:39:16;;;;;;;8.80;6.45;;;21.60;99.90;;;;;;5074799;28;20076;-65
2022/05/12 07:41:43;;;;;;;9.40;6.38;;;21.70;99.90;;;;;;5073677;28;20086;-65
2022/05/12 07:44:11;;;;;;;;;;;21.70;99.90;;;;;;5074891;28;20097;-65
2022/05/12 07:46:37;;;;;;;9.43;6.07;;;21.90;99.90;;;;;;5056999;28;19927;-65
2022/05/12 07:49:04;;;;;;;11.73;6.43;;;22.20;99.90;;;;;;5073941;28;20048;-65
2022/05/12 07:51:31;;;;;;;9.73;6.38;;;22.20;99.90;;;;;;5073576;28;20037;-65
2022/05/12 07:53:58;;;;;;;16.85;6.50;;;22.20;99.90;;;;;;5054750;28;20040;-66
2022/05/12 07:56:27;;;;;;;12.57;6.45;;;22.20;99.90;;;;;;5054498;28;20508;-65
2022/05/12 07:58:56;;;;;;;8.02;6.50;;;22.10;99.90;;;;;;5067328;28;20432;-65
2022/05/12 08:01:24;;;;;;;10.13;6.40;;;22.30;99.90;;;;;;5073700;28;20045;-65
2022/05/12 08:03:51;;;;;;;8.20;6.75;;;22.70;99.90;;;;;;5074160;28;20040;-65
2022/05/12 08:06:20;;;;;;;11.88;6.10;;;22.80;99.90;;;;;;5074243;28;20056;-65
2022/05/12 08:08:48;;;;;;;12.23;6.85;;;22.70;99.90;;;;;;5073349;28;20454;-66
2022/05/12 08:11:15;;;;;;;8.82;6.30;;;22.50;99.90;;;;;;5073579;28;20416;-65
2022/05/12 08:13:47;;;;;;;8.40;6.57;;;22.50;99.90;;;;;;5074132;28;20098;-65
2022/05/12 08:16:16;;;;;;;9.00;6.63;;;22.60;99.90;;;;;;5073448;28;20055;-65
2022/05/12 08:18:45;;;;;;;11.23;6.80;;;22.60;99.90;;;;;;5073420;28;20519;-65
2022/05/12 08:21:13;;;;;;;9.02;6.43;;;22.60;99.90;;;;;;5073673;28;20094;-65
2022/05/12 08:23:40;;;;;;;11.32;6.30;;;22.80;99.90;;;;;;5074491;28;20378;-65
2022/05/12 08:26:08;;;;;;;10.57;6.78;;;23.00;99.90;;;;;;5073269;28;20044;-65
2022/05/12 08:28:35;;;;;;;10.00;6.47;;;22.90;99.90;;;;;;5073754;28;20105;-65
2022/05/12 08:31:02;;;;;;;8.02;6.00;;;23.00;99.90;;;;;;5073165;28;20044;-65
2022/05/12 08:33:35;;;;;;;10.38;6.85;;;23.20;99.90;;;;;;5073011;28;20404;-65
2022/05/12 08:36:03;;;;;;;12.30;6.88;;;23.00;99.90;;;;;;5073784;28;20036;-66
2022/05/12 08:38:30;;;;;;;10.85;6.60;;;23.10;99.90;;;;;;5073617;28;20044;-65
2022/05/12 08:41:12;;;;;;;16.17;6.47;;;23.20;99.90;;;;;;5072837;28;20037;-65
2022/05/12 08:43:44;;;;;;;10.27;6.82;;;23.30;99.90;;;;;;5073166;28;20119;-65
2022/05/12 08:46:22;;;;;;;10.00;6.75;;;23.20;99.90;;;;;;5073749;28;20492;-65
2022/05/12 08:48:51;;;;;;;;;;;23.20;99.90;;;;;;5073209;28;20467;-66
2022/05/12 08:51:21;;;;;;;9.65;7.13;;;23.20;99.90;;;;;;5072773;28;20032;-65
2022/05/12 08:53:58;;;;;;;9.98;6.50;;;23.20;99.90;;;;;;5073330;28;20044;-65
2022/05/12 08:56:26;;;;;;;10.43;6.50;;;23.30;99.90;;;;;;5072846;28;20056;-65
2022/05/12 08:58:55;;;;;;;11.85;6.82;;;23.60;99.90;;;;;;5073235;28;20037;-65
2022/05/12 09:01:36;;;;;;;13.18;7.07;;;23.60;99.90;;;;;;5072823;28;20044;-65
2022/05/12 09:04:41;;;;;;;10.00;7.07;;;23.50;99.90;;;;;;5073173;28;20081;-65
2022/05/12 09:07:17;;;;;;;13.02;7.38;;;23.40;99.90;;;;;;5066387;28;20044;-66
2022/05/12 09:10:13;;;;;;;10.88;6.82;;;23.50;99.90;;;;;;5073072;28;20041;-66
2022/05/12 09:12:48;;;;;;;11.32;6.75;;;23.90;99.90;;;;;;5072964;28;20082;-66
2022/05/12 09:15:21;;;;;;;12.95;6.95;;;24.10;99.90;;;;;;5069399;28;20106;-66
2022/05/12 09:17:56;;;;;;;11.63;6.93;;;24.10;99.90;;;;;;5071375;28;20045;-66
2022/05/12 09:20:25;;;;;;;13.27;6.18;;;23.90;99.90;;;;;;5072414;28;20051;-66
2022/05/12 09:22:57;;;;;;;6.63;4.60;;;23.70;99.90;;;;;;5072976;28;20043;-66
2022/05/12 09:25:43;;;;;;;9.50;5.55;;;23.80;99.90;;;;;;5072149;28;20512;-66
2022/05/12 09:28:24;;;;;;;;;;;24.00;99.90;;;;;;5066704;28;20399;-66
2022/05/12 09:30:51;;;;;;;7.60;4.32;;;24.20;99.60;;;;;;5066407;28;19943;-66
2022/05/12 09:33:34;;;;;;;16.30;4.80;;;24.40;99.90;;;;;;5063547;28;20062;-65
2022/05/12 09:36:08;;;;;;;10.63;4.95;;;24.60;99.90;;;;;;5063255;28;20025;-65
2022/05/12 09:38:44;;;;;;;10.85;5.30;;;24.70;99.90;;;;;;5061581;28;20052;-65
2022/05/12 09:41:17;;;;;;;8.60;4.55;;;24.60;99.10;;;;;;5062084;28;20037;-65
2022/05/12 09:43:44;;;;;;;10.43;5.03;;;24.60;99.10;;;;;;5064550;28;20044;-65
2022/05/12 09:46:29;;;;;;;9.30;5.07;;;24.40;99.80;;;;;;5056167;28;20037;-65
2022/05/12 09:49:18;;;;;;;8.70;4.55;;;24.30;99.20;;;;;;5062546;28;20079;-65
2022/05/12 09:51:46;;;;;;;8.32;4.55;;;24.20;99.70;;;;;;5073254;28;20396;-64
2022/05/12 09:54:25;;;;;;;8.35;4.35;;;24.00;99.70;;;;;;5072606;28;20056;-65
2022/05/12 09:57:21;;;;;;;6.38;4.28;;;24.00;99.90;;;;;;5078620;28;20040;-65
2022/05/12 09:59:55;;;;;;;7.55;4.63;;;24.00;99.90;;;;;;5077085;28;20097;-65
2022/05/12 10:07:53;;;;;;;9.52;4.70;;;24.00;99.70;;;;;;5078459;28;20404;-65
2022/05/12 10:08:16;;;;;;;9.80;3.97;;;24.30;98.60;;;;;;5082957;28;20398;-65
2022/05/12 10:10:47;;;;;;;6.95;4.57;;;24.80;98.20;;;;;;5083060;28;20093;-65
2022/05/12 10:13:25;;;;;;;8.25;4.18;;;25.00;97.30;;;;;;5081046;28;20043;-65
2022/05/12 10:15:54;;;;;;;6.88;3.92;;;24.90;96.90;;;;;;5069848;28;20045;-65
2022/05/12 10:18:33;;;;;;;12.32;3.95;;;24.80;97.30;;;;;;5082956;22;20135;-66
2022/05/12 10:21:30;;;;;;;6.22;4.05;;;24.70;97.00;;;;;;5067811;28;20812;-66
2022/05/12 10:24:16;;;;;;;10.55;4.28;;;24.60;96.90;;;;;;5072721;28;20119;-66
2022/05/12 10:26:51;;;;;;;8.57;4.43;;;24.80;97.00;;;;;;5051459;28;20517;-66
2022/05/12 10:29:45;;;;;;;9.63;4.25;;;25.00;98.50;;;;;;5034725;28;20371;-66
2022/05/12 10:32:40;;;;;;;9.07;3.85;;;25.20;97.80;;;;;;5039931;28;20493;-66
2022/05/12 10:35:15;;;;;;;8.00;3.80;;;25.20;95.10;;;;;;5035031;28;20045;-67
2022/05/12 10:37:51;;;;;;;7.18;3.83;;;25.50;96.90;;;;;;5039513;28;20088;-67
2022/05/12 10:40:46;;;;;;;6.07;3.72;;;25.70;95.70;;;;;;5035596;28;20045;-66
2022/05/12 10:43:31;;;;;;;9.70;3.80;;;25.60;94.70;;;;;;5048228;28;20056;-66
2022/05/12 10:46:04;;;;;;;5.65;3.63;;;25.30;93.40;;;;;;5059643;28;20041;-67
2022/05/12 10:48:57;;;;;;;10.32;4.20;;;25.30;95.30;;;;;;5051314;28;20045;-66
2022/05/12 10:51:45;;;;;;;31.45;4.45;;;25.10;95.50;;;;;;5032949;28;20514;-66
2022/05/12 10:54:50;;;;;;;11.40;4.05;;;24.90;96.80;;;;;;5031216;28;20037;-66
2022/05/12 10:57:31;;;;;;;7.55;3.85;;;24.90;95.40;;;;;;5031318;28;20053;-66
2022/05/12 11:00:16;;;;;;;7.10;3.83;;;25.00;96.40;;;;;;5040834;28;20095;-66
2022/05/12 11:02:47;;;;;;;6.82;4.00;;;25.00;96.20;;;;;;5049033;28;20048;-66
2022/05/12 11:05:35;;;;;;;12.60;4.35;;;25.00;95.50;;;;;;5051353;28;20052;-66
2022/05/12 11:08:16;;;;;;;10.70;4.63;;;25.40;97.70;;;;;;5038870;28;20042;-66
2022/05/12 11:10:54;;;;;;;8.27;4.40;;;25.30;95.70;;;;;;5045322;28;20107;-66
2022/05/12 11:13:29;;;;;;;;;;;25.20;95.60;;;;;;5047539;28;20041;-66
2022/05/12 11:16:03;;;;;;;17.00;5.15;;;25.30;95.30;;;;;;5045588;28;20377;-66
2022/05/12 11:18:39;;;;;;;7.88;4.70;;;25.30;95.00;;;;;;5035666;28;20036;-65
2022/05/12 11:21:14;;;;;;;11.52;3.70;;;25.50;95.90;;;;;;5031730;28;20045;-65
2022/05/12 11:24:21;;;;;;;12.55;4.10;;;25.40;94.50;;;;;;5045746;28;20048;-66
2022/05/12 11:27:05;;;;;;;9.90;4.10;;;25.50;95.90;;;;;;5043547;28;20044;-66
2022/05/12 11:30:04;;;;;;;8.00;3.60;;;25.80;95.80;;;;;;5034216;28;20042;-65
2022/05/12 11:32:37;;;;;;;5.60;3.78;;;26.20;94.90;;;;;;5050674;28;20485;-65
2022/05/12 11:35:17;;;;;;;9.07;4.10;;;26.00;93.60;;;;;;5051047;28;20440;-66
2022/05/12 11:37:43;;;;;;;8.52;3.85;;;25.50;94.60;;;;;;5048084;28;20045;-66
2022/05/12 11:40:40;;;;;;;7.90;4.03;;;25.50;94.30;;;;;;5043892;28;20087;-65
2022/05/12 11:46:35;;;;;;;10.15;3.95;;;25.80;93.80;;;;;;5049615;28;20079;-65
2022/05/12 11:49:26;;;;;;;10.75;4.28;;;25.80;93.10;;;;;;5021156;28;20045;-66
2022/05/12 11:52:01;;;;;;;7.72;4.22;;;26.00;93.90;;;;;;5042438;28;20049;-66
2022/05/12 11:54:38;;;;;;;6.60;3.53;;;26.00;93.90;;;;;;5050737;28;20037;-66
2022/05/12 11:57:24;;;;;;;10.65;4.07;;;26.20;93.10;;;;;;5045778;28;20087;-66
2022/05/12 11:59:56;;;;;;;10.25;4.60;;;26.40;93.80;;;;;;5045607;28;20378;-65
2022/05/12 12:02:29;;;;;;;12.05;4.10;;;26.40;93.90;;;;;;5036829;28;20045;-66
2022/05/12 12:05:05;;;;;;;6.93;3.45;;;26.50;93.40;;;;;;5037748;28;20525;-66
2022/05/12 12:07:32;;;;;;;18.03;3.87;;;26.80;92.60;;;;;;5054323;28;20052;-65
2022/05/12 12:10:30;;;;;;;10.40;3.72;;;26.70;92.10;;;;;;5053956;28;20401;-66
2022/05/12 12:13:00;;;;;;;10.00;3.78;;;26.70;93.00;;;;;;5037404;28;20051;-66
2022/05/12 12:15:30;;;;;;;4.80;3.50;;;26.80;92.60;;;;;;5053911;28;20045;-65
2022/05/12 12:17:59;;;;;;;5.47;3.42;;;26.90;91.30;;;;;;5053936;28;20049;-66
2022/05/12 12:20:29;;;;;;;9.20;3.65;;;26.90;91.90;;;;;;5045393;28;20045;-66
2022/05/12 12:23:17;;;;;;;8.02;3.17;;;27.20;90.10;;;;;;5045288;28;20136;-65
2022/05/12 12:25:54;;;;;;;6.88;3.65;;;27.30;90.00;;;;;;5054086;28;20520;-65
2022/05/12 12:28:50;;;;;;;4.50;2.85;;;27.30;89.20;;;;;;5053230;28;20114;-65
2022/05/12 12:31:35;;;;;;;4.97;3.97;;;27.20;87.90;;;;;;5033029;28;20051;-65
2022/05/12 12:34:02;;;;;;;9.90;3.50;;;26.80;87.80;;;;;;5041212;28;20079;-66
2022/05/12 12:36:29;;;;;;;4.95;3.50;;;26.90;90.30;;;;;;5048781;28;20090;-65
2022/05/12 12:38:56;;;;;;;12.95;3.65;;;26.90;89.80;;;;;;5047634;28;20037;-66
2022/05/12 12:41:31;;;;;;;5.70;3.60;;;27.00;90.50;;;;;;5048850;28;20041;-66
2022/05/12 12:43:59;;;;;;;6.05;3.53;;;27.10;87.20;;;;;;5038374;28;20037;-65
2022/05/12 12:46:47;;;;;;;7.18;3.72;;;27.30;90.40;;;;;;5034194;28;20518;-65
2022/05/12 12:49:20;;;;;;;7.38;3.30;;;27.00;86.60;;;;;;5032851;28;20931;-66
2022/05/12 12:51:57;;;;;;;6.28;3.22;;;27.10;87.80;;;;;;5044859;28;20041;-66
2022/05/12 12:57:30;;;;;;;7.85;3.33;;;27.30;85.10;;;;;;5044972;28;20041;-65
2022/05/12 13:00:11;;;;;;;10.60;3.30;;;27.60;82.10;;;;;;5044307;28;20567;-66
2022/05/12 13:02:41;;;;;;;5.28;2.92;;;27.50;86.60;;;;;;5034061;28;20041;-65
2022/05/12 13:05:19;;;;;;;4.78;3.22;;;27.80;84.90;;;;;;5058841;28;20044;-65
2022/05/12 13:08:05;;;;;;;9.13;3.35;;;27.50;83.70;;;;;;5063100;28;20653;-65
2022/05/12 13:10:46;;;;;;;7.22;3.50;;;26.90;82.30;;;;;;5072618;28;20044;-66
2022/05/12 13:13:13;;;;;;;4.65;3.25;;;26.60;81.90;;;;;;5036392;28;20371;-66
2022/05/12 13:15:43;;;;;;;8.82;3.45;;;26.50;81.80;;;;;;5035196;28;20501;-66
2022/05/12 13:18:27;;;;;;;7.82;3.53;;;26.40;83.90;;;;;;5032919;28;20042;-66
2022/05/12 13:20:56;;;;;;;5.75;3.40;;;26.80;80.70;;;;;;5041742;28;20041;-66
2022/05/12 13:23:32;;;;;;;5.20;3.42;;;27.40;83.40;;;;;;5048155;28;20464;-66
2022/05/12 13:26:04;;;;;;;4.70;2.90;;;27.80;83.30;;;;;;5052835;28;20040;-66
2022/05/12 13:28:32;;;;;;;6.85;3.47;;;28.00;83.10;;;;;;5050967;28;20045;-65